createdAt,value
2023-04-25T00:00:23.142Z,4.00
2023-04-25T00:01:23.132Z,4.00
2023-04-25T00:02:23.207Z,4.20
2023-04-25T00:03:23.475Z,4.10
2023-04-25T00:04:23.358Z,4.40
2023-04-25T00:05:23.131Z,4.40
2023-04-25T00:06:23.083Z,5.00
2023-04-25T00:07:23.087Z,4.00
2023-04-25T00:08:23.055Z,3.90
2023-04-25T00:09:23.053Z,4.20
2023-04-25T00:10:23.050Z,4.50
2023-04-25T00:11:23.033Z,4.20
2023-04-25T00:12:23.041Z,4.20
2023-04-25T00:13:23.135Z,4.30
2023-04-25T00:14:23.013Z,4.70
2023-04-25T00:15:23.020Z,4.60
2023-04-25T00:16:23.050Z,4.60
2023-04-25T00:17:23.054Z,4.90
2023-04-25T00:18:22.962Z,4.30
2023-04-25T00:19:23.984Z,4.10
2023-04-25T00:20:22.971Z,4.60
2023-04-25T00:21:22.940Z,4.40
2023-04-25T00:22:22.940Z,4.70
2023-04-25T00:23:22.918Z,4.90
2023-04-25T00:24:22.930Z,4.80
2023-04-25T00:25:22.902Z,4.80
2023-04-25T00:26:22.901Z,4.90
2023-04-25T00:27:22.903Z,4.60
2023-04-25T00:28:22.887Z,4.40
2023-04-25T00:29:22.868Z,5.10
2023-04-25T00:30:22.853Z,5.30
2023-04-25T00:31:22.888Z,4.50
2023-04-25T00:32:22.851Z,5.20
2023-04-25T00:33:22.825Z,5.00
2023-04-25T00:34:22.823Z,5.30
2023-04-25T00:35:22.806Z,5.00
2023-04-25T00:36:22.787Z,5.00
2023-04-25T00:37:22.800Z,5.20
2023-04-25T00:38:22.774Z,5.30
2023-04-25T00:39:22.762Z,5.00
2023-04-25T00:40:22.754Z,5.00
2023-04-25T00:41:22.760Z,5.60
2023-04-25T00:42:22.742Z,4.80
2023-04-25T00:43:22.723Z,5.50
2023-04-25T00:44:22.711Z,5.50
2023-04-25T00:45:22.705Z,5.50
2023-04-25T00:46:22.760Z,5.30
2023-04-25T00:47:22.702Z,5.30
2023-04-25T00:48:22.681Z,5.20
2023-04-25T00:49:22.666Z,5.40
2023-04-25T00:50:22.660Z,5.40
2023-04-25T00:51:22.660Z,5.00
2023-04-25T00:52:22.651Z,5.00
2023-04-25T00:53:22.627Z,5.60
2023-04-25T00:54:22.645Z,5.80
2023-04-25T00:55:22.606Z,5.20
2023-04-25T00:56:22.589Z,5.20
2023-04-25T00:57:22.604Z,5.70
2023-04-25T00:58:22.668Z,5.50
2023-04-25T00:59:22.562Z,5.90
2023-04-25T01:00:22.562Z,5.40
2023-04-25T01:01:22.603Z,6.00
2023-04-25T01:02:22.744Z,5.70
2023-04-25T01:03:22.668Z,6.00
2023-04-25T01:04:22.739Z,5.90
2023-04-25T01:05:22.506Z,6.30
2023-04-25T01:06:22.495Z,6.00
2023-04-25T01:07:22.496Z,6.30
2023-04-25T01:08:22.480Z,6.70
2023-04-25T01:09:22.465Z,6.00
2023-04-25T01:10:22.458Z,5.70
2023-04-25T01:11:22.452Z,6.20
2023-04-25T01:12:22.465Z,5.90
2023-04-25T01:13:22.419Z,6.60
2023-04-25T01:14:22.431Z,5.60
2023-04-25T01:15:22.413Z,5.60
2023-04-25T01:16:22.428Z,6.00
2023-04-25T01:17:22.407Z,6.10
2023-04-25T01:18:22.393Z,6.30
2023-04-25T01:19:22.371Z,6.00
2023-04-25T01:20:22.359Z,5.60
2023-04-25T01:21:22.361Z,5.90
2023-04-25T01:22:22.342Z,5.60
2023-04-25T01:23:22.333Z,5.90
2023-04-25T01:24:22.321Z,6.60
2023-04-25T01:25:22.317Z,5.70
2023-04-25T01:26:22.336Z,5.70
2023-04-25T01:27:22.294Z,6.00
2023-04-25T01:28:22.281Z,6.00
2023-04-25T01:29:22.278Z,6.00
2023-04-25T01:30:22.281Z,6.00
2023-04-25T01:31:22.282Z,6.30
2023-04-25T01:32:22.281Z,7.00
2023-04-25T01:33:22.244Z,6.50
2023-04-25T01:34:22.232Z,6.30
2023-04-25T01:35:22.222Z,6.20
2023-04-25T01:36:22.215Z,6.10
2023-04-25T01:37:22.209Z,6.20
2023-04-25T01:38:22.187Z,6.30
2023-04-25T01:39:22.185Z,6.60
2023-04-25T01:40:22.183Z,6.90
2023-04-25T01:41:23.507Z,6.10
2023-04-25T01:42:22.160Z,6.40
2023-04-25T01:43:22.152Z,6.70
2023-04-25T01:44:22.139Z,6.70
2023-04-25T01:45:22.125Z,7.30
2023-04-25T01:46:22.180Z,7.60
2023-04-25T01:47:22.154Z,7.20
2023-04-25T01:48:22.100Z,7.10
2023-04-25T01:49:22.093Z,7.60
2023-04-25T01:50:22.108Z,7.80
2023-04-25T01:51:22.076Z,7.60
2023-04-25T01:52:22.084Z,8.00
2023-04-25T01:53:22.063Z,8.40
2023-04-25T01:54:22.039Z,8.40
2023-04-25T01:55:22.043Z,7.90
2023-04-25T01:56:22.041Z,8.20
2023-04-25T01:57:22.011Z,8.00
2023-04-25T01:58:22.020Z,9.00
2023-04-25T01:59:22.009Z,8.40
2023-04-25T02:00:21.995Z,9.00
2023-04-25T02:01:22.062Z,9.00
2023-04-25T02:02:22.181Z,8.60
2023-04-25T02:03:22.129Z,10.30
2023-04-25T02:04:22.162Z,9.50
2023-04-25T02:05:21.941Z,9.70
2023-04-25T02:06:21.954Z,9.40
2023-04-25T02:07:21.918Z,9.40
2023-04-25T02:08:22.924Z,9.80
2023-04-25T02:09:21.903Z,9.90
2023-04-25T02:10:21.901Z,10.00
2023-04-25T02:11:21.895Z,10.80
2023-04-25T02:12:22.884Z,10.50
2023-04-25T02:13:21.869Z,10.30
2023-04-25T02:14:21.868Z,10.20
2023-04-25T02:15:21.868Z,10.80
2023-04-25T02:16:22.119Z,10.50
2023-04-25T02:17:21.830Z,10.60
2023-04-25T02:18:21.904Z,11.20
2023-04-25T02:19:21.825Z,11.40
2023-04-25T02:20:21.811Z,11.30
2023-04-25T02:21:21.813Z,10.60
2023-04-25T02:22:21.785Z,12.00
2023-04-25T02:23:21.781Z,10.90
2023-04-25T02:24:21.802Z,11.60
2023-04-25T02:25:21.763Z,11.90
2023-04-25T02:26:21.771Z,10.90
2023-04-25T02:27:21.750Z,11.30
2023-04-25T02:28:21.742Z,12.20
2023-04-25T02:29:21.729Z,11.90
2023-04-25T02:30:21.719Z,12.00
2023-04-25T02:31:21.801Z,11.20
2023-04-25T02:32:21.717Z,11.60
2023-04-25T02:33:21.686Z,11.10
2023-04-25T02:34:21.681Z,11.70
2023-04-25T02:35:21.668Z,11.00
2023-04-25T02:36:21.683Z,11.60
2023-04-25T02:37:21.654Z,11.20
2023-04-25T02:38:21.649Z,11.80
2023-04-25T02:39:21.637Z,11.00
2023-04-25T02:40:21.635Z,10.90
2023-04-25T02:41:21.631Z,11.30
2023-04-25T02:42:21.605Z,10.50
2023-04-25T02:43:21.595Z,11.30
2023-04-25T02:44:21.624Z,10.90
2023-04-25T02:45:21.580Z,10.50
2023-04-25T02:46:32.221Z,10.70
2023-04-25T02:47:23.688Z,11.00
2023-04-25T02:48:21.567Z,10.60
2023-04-25T02:49:21.544Z,11.40
2023-04-25T02:50:21.532Z,10.80
2023-04-25T02:51:21.541Z,10.50
2023-04-25T02:52:21.514Z,10.40
2023-04-25T02:53:21.518Z,10.60
2023-04-25T02:54:21.515Z,10.30
2023-04-25T02:55:21.483Z,10.10
2023-04-25T02:56:21.489Z,9.30
2023-04-25T02:57:21.460Z,10.20
2023-04-25T02:58:21.457Z,9.50
2023-04-25T02:59:21.449Z,9.30
2023-04-25T03:00:21.447Z,9.20
2023-04-25T03:01:21.531Z,9.20
2023-04-25T03:02:21.503Z,9.70
2023-04-25T03:03:21.487Z,9.70
2023-04-25T03:04:21.472Z,9.40
2023-04-25T03:05:21.394Z,9.20
2023-04-25T03:06:21.405Z,9.70
2023-04-25T03:07:21.376Z,8.90
2023-04-25T03:08:21.385Z,10.00
2023-04-25T03:09:21.362Z,9.20
2023-04-25T03:10:21.373Z,9.60
2023-04-25T03:11:21.364Z,9.40
2023-04-25T03:12:21.327Z,8.90
2023-04-25T03:13:21.324Z,8.70
2023-04-25T03:14:21.310Z,9.30
2023-04-25T03:15:21.322Z,9.20
2023-04-25T03:16:21.340Z,8.40
2023-04-25T03:17:21.316Z,9.00
2023-04-25T03:18:21.335Z,8.80
2023-04-25T03:19:21.271Z,9.00
2023-04-25T03:20:21.305Z,9.50
2023-04-25T03:21:21.253Z,9.20
2023-04-25T03:22:21.261Z,8.80
2023-04-25T03:23:21.232Z,8.70
2023-04-25T03:24:21.219Z,8.30
2023-04-25T03:25:21.229Z,8.90
2023-04-25T03:26:21.206Z,8.30
2023-04-25T03:27:21.201Z,9.10
2023-04-25T03:28:21.200Z,9.30
2023-04-25T03:29:21.179Z,9.00
2023-04-25T03:30:21.177Z,8.20
2023-04-25T03:31:21.225Z,8.20
2023-04-25T03:32:21.167Z,8.40
2023-04-25T03:33:21.146Z,8.70
2023-04-25T03:34:21.129Z,8.80
2023-04-25T03:35:21.120Z,9.60
2023-04-25T03:36:21.103Z,9.30
2023-04-25T03:37:21.131Z,9.30
2023-04-25T03:38:21.085Z,8.70
2023-04-25T03:39:21.074Z,8.50
2023-04-25T03:40:21.068Z,8.70
2023-04-25T03:41:21.058Z,9.10
2023-04-25T03:42:21.052Z,9.30
2023-04-25T03:43:21.038Z,8.80
2023-04-25T03:44:21.043Z,8.50
2023-04-25T03:45:21.034Z,8.10
2023-04-25T03:46:21.074Z,8.40
2023-04-25T03:47:21.073Z,8.10
2023-04-25T03:48:20.996Z,8.40
2023-04-25T03:49:20.995Z,8.30
2023-04-25T03:50:20.979Z,8.90
2023-04-25T03:51:20.979Z,8.20
2023-04-25T03:52:20.968Z,7.90
2023-04-25T03:53:20.949Z,7.70
2023-04-25T03:54:20.933Z,7.80
2023-04-25T03:55:20.940Z,7.50
2023-04-25T03:56:20.920Z,7.90
2023-04-25T03:57:20.924Z,8.10
2023-04-25T03:58:20.898Z,7.10
2023-04-25T03:59:20.891Z,8.10
2023-04-25T04:00:20.884Z,8.80
2023-04-25T04:01:20.889Z,7.70
2023-04-25T04:02:20.934Z,7.40
2023-04-25T04:03:21.022Z,7.20
2023-04-25T04:04:21.207Z,7.40
2023-04-25T04:05:20.990Z,7.20
2023-04-25T04:06:20.828Z,7.20
2023-04-25T04:07:20.840Z,6.80
2023-04-25T04:08:20.801Z,7.70
2023-04-25T04:09:20.796Z,7.70
2023-04-25T04:10:20.798Z,7.50
2023-04-25T04:11:20.771Z,7.20
2023-04-25T04:12:20.777Z,7.00
2023-04-25T04:13:20.756Z,7.40
2023-04-25T04:14:20.750Z,6.40
2023-04-25T04:15:20.727Z,6.80
2023-04-25T04:16:20.743Z,7.20
2023-04-25T04:17:20.744Z,6.90
2023-04-25T04:18:20.709Z,6.70
2023-04-25T04:19:20.705Z,6.50
2023-04-25T04:20:20.687Z,6.50
2023-04-25T04:21:20.674Z,7.10
2023-04-25T04:22:20.674Z,6.80
2023-04-25T04:23:20.666Z,6.90
2023-04-25T04:24:20.652Z,6.70
2023-04-25T04:25:20.641Z,7.20
2023-04-25T04:26:20.638Z,6.40
2023-04-25T04:27:20.663Z,6.80
2023-04-25T04:28:20.616Z,6.90
2023-04-25T04:29:20.605Z,6.70
2023-04-25T04:30:20.598Z,7.00
2023-04-25T04:31:20.694Z,6.90
2023-04-25T04:32:20.584Z,7.00
2023-04-25T04:33:20.572Z,7.50
2023-04-25T04:34:20.564Z,8.50
2023-04-25T04:35:20.546Z,7.30
2023-04-25T04:36:20.536Z,7.50
2023-04-25T04:37:20.543Z,7.20
2023-04-25T04:38:20.522Z,6.90
2023-04-25T04:39:20.522Z,8.80
2023-04-25T04:40:20.506Z,7.80
2023-04-25T04:41:20.537Z,7.60
2023-04-25T04:42:20.517Z,8.00
2023-04-25T04:43:20.483Z,8.60
2023-04-25T04:44:20.467Z,8.70
2023-04-25T04:45:20.459Z,7.60
2023-04-25T04:46:20.489Z,8.50
2023-04-25T04:47:20.453Z,9.10
2023-04-25T04:48:20.430Z,8.60
2023-04-25T04:49:20.412Z,8.70
2023-04-25T04:50:20.403Z,8.20
2023-04-25T04:51:20.393Z,7.80
2023-04-25T04:52:20.403Z,8.20
2023-04-25T04:53:20.382Z,8.10
2023-04-25T04:54:20.378Z,8.00
2023-04-25T04:55:20.358Z,7.80
2023-04-25T04:56:20.354Z,8.10
2023-04-25T04:57:20.356Z,8.20
2023-04-25T04:58:20.338Z,8.50
2023-04-25T04:59:20.329Z,8.30
2023-04-25T05:00:20.314Z,8.50
2023-04-25T05:01:20.396Z,8.80
2023-04-25T05:02:20.338Z,8.90
2023-04-25T05:03:20.457Z,8.50
2023-04-25T05:04:20.360Z,8.70
2023-04-25T05:05:20.270Z,8.70
2023-04-25T05:06:20.264Z,8.80
2023-04-25T05:07:20.258Z,8.60
2023-04-25T05:08:20.254Z,8.30
2023-04-25T05:09:20.251Z,8.30
2023-04-25T05:10:20.223Z,8.50
2023-04-25T05:11:20.217Z,8.90
2023-04-25T05:12:20.215Z,8.10
2023-04-25T05:13:20.192Z,8.40
2023-04-25T05:14:20.187Z,7.80
2023-04-25T05:15:20.170Z,7.70
2023-04-25T05:16:20.193Z,7.60
2023-04-25T05:17:20.164Z,8.20
2023-04-25T05:18:23.156Z,7.30
2023-04-25T05:19:20.141Z,7.30
2023-04-25T05:20:20.136Z,7.10
2023-04-25T05:21:20.124Z,6.80
2023-04-25T05:22:20.134Z,7.40
2023-04-25T05:23:20.100Z,7.30
2023-04-25T05:24:20.099Z,6.70
2023-04-25T05:25:20.088Z,6.50
2023-04-25T05:26:20.077Z,6.50
2023-04-25T05:27:20.090Z,6.40
2023-04-25T05:28:20.053Z,6.50
2023-04-25T05:29:20.041Z,6.40
2023-04-25T05:30:20.036Z,5.70
2023-04-25T05:31:20.060Z,6.00
2023-04-25T05:32:20.294Z,6.10
2023-04-25T05:33:20.011Z,6.00
2023-04-25T05:34:20.001Z,6.30
2023-04-25T05:35:20.028Z,5.90
2023-04-25T05:36:19.982Z,5.40
2023-04-25T05:37:19.983Z,5.20
2023-04-25T05:38:19.953Z,5.20
2023-04-25T05:39:20.957Z,5.00
2023-04-25T05:40:19.971Z,5.30
2023-04-25T05:41:19.933Z,5.10
2023-04-25T05:42:19.934Z,5.10
2023-04-25T05:43:19.908Z,5.40
2023-04-25T05:44:19.907Z,5.00
2023-04-25T05:45:19.892Z,5.00
2023-04-25T05:46:19.905Z,4.90
2023-04-25T05:47:19.883Z,5.10
2023-04-25T05:48:19.860Z,5.10
2023-04-25T05:49:19.865Z,4.90
2023-04-25T05:50:19.861Z,5.10
2023-04-25T05:51:19.832Z,4.80
2023-04-25T05:52:19.834Z,5.20
2023-04-25T05:53:19.814Z,4.80
2023-04-25T05:54:19.801Z,4.60
2023-04-25T05:55:19.788Z,4.70
2023-04-25T05:56:19.771Z,2.80
2023-04-25T05:57:19.772Z,2.70
2023-04-25T05:58:20.770Z,2.70
2023-04-25T05:59:19.748Z,2.50
2023-04-25T06:00:19.743Z,2.90
2023-04-25T06:01:19.732Z,2.80
2023-04-25T06:02:19.817Z,4.30
2023-04-25T06:03:20.814Z,4.50
2023-04-25T06:04:20.956Z,4.20
2023-04-25T06:05:19.815Z,3.70
2023-04-25T06:06:19.680Z,4.10
2023-04-25T06:07:19.687Z,4.20
2023-04-25T06:08:19.660Z,3.70
2023-04-25T06:09:19.648Z,3.40
2023-04-25T06:10:19.652Z,2.60
2023-04-25T06:11:19.632Z,2.70
2023-04-25T06:12:19.643Z,4.80
2023-04-25T06:13:19.625Z,4.40
2023-04-25T06:14:19.600Z,4.30
2023-04-25T06:16:20.607Z,4.60
2023-04-25T06:17:19.612Z,4.70
2023-04-25T06:18:19.668Z,4.90
2023-04-25T06:19:19.558Z,5.10
2023-04-25T06:20:19.558Z,4.80
2023-04-25T06:21:19.554Z,5.10
2023-04-25T06:22:19.569Z,5.20
2023-04-25T06:23:19.534Z,5.20
2023-04-25T06:24:19.514Z,4.90
2023-04-25T06:25:19.515Z,5.60
2023-04-25T06:26:19.502Z,5.20
2023-04-25T06:27:19.501Z,5.00
2023-04-25T06:28:19.484Z,5.00
2023-04-25T06:29:19.471Z,5.30
2023-04-25T06:30:19.507Z,5.50
2023-04-25T06:31:19.461Z,5.30
2023-04-25T06:32:19.464Z,4.70
2023-04-25T06:33:19.437Z,5.40
2023-04-25T06:34:19.532Z,5.20
2023-04-25T06:35:19.419Z,5.20
2023-04-25T06:36:19.405Z,5.20
2023-04-25T06:37:19.412Z,5.00
2023-04-25T06:38:19.393Z,5.50
2023-04-25T06:39:19.378Z,5.60
2023-04-25T06:40:19.379Z,5.30
2023-04-25T06:41:19.356Z,5.40
2023-04-25T06:42:19.367Z,5.90
2023-04-25T06:43:19.345Z,5.70
2023-04-25T06:44:19.334Z,5.30
2023-04-25T06:45:19.337Z,5.30
2023-04-25T06:46:19.345Z,5.10
2023-04-25T06:47:19.341Z,3.10
2023-04-25T06:48:19.297Z,3.20
2023-04-25T06:49:19.290Z,4.20
2023-04-25T06:50:19.272Z,3.90
2023-04-25T06:51:19.267Z,3.70
2023-04-25T06:52:19.256Z,5.80
2023-04-25T06:53:19.250Z,5.60
2023-04-25T06:54:19.247Z,3.90
2023-04-25T06:55:19.232Z,3.50
2023-04-25T06:56:19.219Z,3.30
2023-04-25T06:57:19.215Z,4.10
2023-04-25T06:58:19.225Z,4.20
2023-04-25T06:59:19.232Z,6.20
2023-04-25T07:00:19.201Z,5.40
2023-04-25T07:01:19.287Z,3.70
2023-04-25T07:02:19.252Z,4.00
2023-04-25T07:03:19.301Z,4.40
2023-04-25T07:04:19.398Z,3.80
2023-04-25T07:05:19.483Z,4.20
2023-04-25T07:06:19.165Z,4.10
2023-04-25T07:07:19.121Z,4.00
2023-04-25T07:08:19.123Z,3.90
2023-04-25T07:09:19.100Z,7.20
2023-04-25T07:10:19.087Z,5.20
2023-04-25T07:11:19.082Z,4.30
2023-04-25T07:12:19.062Z,5.20
2023-04-25T07:13:19.070Z,6.10
2023-04-25T07:14:19.051Z,5.90
2023-04-25T07:15:19.048Z,4.00
2023-04-25T07:16:19.152Z,5.80
2023-04-25T07:17:19.022Z,6.10
2023-04-25T07:18:19.021Z,4.00
2023-04-25T07:19:19.003Z,5.90
2023-04-25T07:20:18.996Z,4.60
2023-04-25T07:21:18.981Z,4.40
2023-04-25T07:22:18.984Z,4.10
2023-04-25T07:23:18.957Z,4.70
2023-04-25T07:24:18.952Z,4.80
2023-04-25T07:25:18.939Z,5.20
2023-04-25T07:26:18.929Z,5.30
2023-04-25T07:27:18.927Z,5.90
2023-04-25T07:28:19.731Z,4.80
2023-04-25T07:29:19.900Z,5.70
2023-04-25T07:30:18.887Z,5.00
2023-04-25T07:31:19.898Z,5.30
2023-04-25T07:32:18.908Z,5.50
2023-04-25T07:33:18.860Z,4.90
2023-04-25T07:34:18.848Z,4.70
2023-04-25T07:35:18.841Z,4.80
2023-04-25T07:36:18.825Z,4.40
2023-04-25T07:37:18.862Z,5.10
2023-04-25T07:38:18.806Z,5.00
2023-04-25T07:39:18.804Z,4.80
2023-04-25T07:40:18.786Z,4.90
2023-04-25T07:41:18.778Z,5.00
2023-04-25T07:42:18.783Z,4.90
2023-04-25T07:43:18.768Z,4.30
2023-04-25T07:44:18.745Z,4.30
2023-04-25T07:45:18.736Z,4.20
2023-04-25T07:46:18.763Z,4.20
2023-04-25T07:47:18.724Z,4.60
2023-04-25T07:48:18.713Z,4.50
2023-04-25T07:49:18.689Z,4.40
2023-04-25T07:50:18.683Z,4.30
2023-04-25T07:51:18.675Z,4.30
2023-04-25T07:52:18.663Z,4.70
2023-04-25T07:53:18.657Z,4.50
2023-04-25T07:54:18.645Z,4.60
2023-04-25T07:55:18.635Z,4.50
2023-04-25T07:56:18.628Z,4.10
2023-04-25T07:57:18.612Z,4.30
2023-04-25T07:58:18.617Z,4.80
2023-04-25T07:59:18.602Z,4.20
2023-04-25T08:00:18.685Z,5.00
2023-04-25T08:01:18.574Z,4.30
2023-04-25T08:02:18.636Z,3.90
2023-04-25T08:03:18.861Z,3.90
2023-04-25T08:04:18.948Z,4.50
2023-04-25T08:05:22.185Z,4.40
2023-04-25T08:06:19.588Z,4.40
2023-04-25T08:07:18.510Z,4.80
2023-04-25T08:08:18.507Z,4.70
2023-04-25T08:09:18.494Z,4.60
2023-04-25T08:10:18.494Z,4.20
2023-04-25T08:11:18.546Z,3.90
2023-04-25T08:12:18.468Z,4.20
2023-04-25T08:13:18.517Z,4.00
2023-04-25T08:14:18.444Z,4.00
2023-04-25T08:15:18.448Z,4.90
2023-04-25T08:16:18.432Z,4.20
2023-04-25T08:17:18.424Z,4.10
2023-04-25T08:18:18.452Z,4.20
2023-04-25T08:19:18.432Z,4.00
2023-04-25T08:20:18.391Z,4.30
2023-04-25T08:21:18.365Z,3.70
2023-04-25T08:22:18.364Z,3.80
2023-04-25T08:23:18.379Z,3.70
2023-04-25T08:24:18.334Z,4.00
2023-04-25T08:25:18.355Z,3.60
2023-04-25T08:26:18.323Z,4.40
2023-04-25T08:27:18.337Z,3.60
2023-04-25T08:28:18.378Z,3.40
2023-04-25T08:29:18.298Z,3.50
2023-04-25T08:30:18.331Z,3.60
2023-04-25T08:31:18.303Z,3.70
2023-04-25T08:32:18.248Z,3.60
2023-04-25T08:33:18.303Z,3.20
2023-04-25T08:34:18.230Z,4.00
2023-04-25T08:35:18.228Z,3.60
2023-04-25T08:36:31.544Z,3.70
2023-04-25T08:37:20.203Z,3.90
2023-04-25T08:38:18.268Z,3.80
2023-04-25T08:39:18.189Z,4.10
2023-04-25T08:40:18.170Z,3.90
2023-04-25T08:41:18.164Z,4.60
2023-04-25T08:42:18.189Z,4.40
2023-04-25T08:43:18.155Z,4.10
2023-04-25T08:44:18.130Z,4.50
2023-04-25T08:45:18.123Z,4.40
2023-04-25T08:46:18.144Z,4.50
2023-04-25T08:47:18.093Z,4.40
2023-04-25T08:48:18.111Z,4.00
2023-04-25T08:49:18.078Z,5.50
2023-04-25T08:50:18.076Z,5.30
2023-04-25T08:51:19.059Z,4.40
2023-04-25T08:52:18.064Z,4.40
2023-04-25T08:53:18.044Z,4.50
2023-04-25T08:54:33.621Z,4.50
2023-04-25T08:55:20.022Z,4.30
2023-04-25T08:56:18.002Z,4.60
2023-04-25T08:57:18.003Z,4.40
2023-04-25T08:58:17.990Z,4.30
2023-04-25T08:59:17.965Z,4.50
2023-04-25T09:00:17.956Z,4.50
2023-04-25T09:01:18.000Z,4.50
2023-04-25T09:02:18.164Z,3.90
2023-04-25T09:03:18.024Z,4.20
2023-04-25T09:04:17.960Z,4.70
2023-04-25T09:05:20.201Z,4.20
2023-04-25T09:06:17.984Z,4.10
2023-04-25T09:07:17.897Z,4.60
2023-04-25T09:08:17.921Z,4.30
2023-04-25T09:09:17.877Z,4.50
2023-04-25T09:10:17.854Z,4.80
2023-04-25T09:11:19.512Z,4.30
2023-04-25T09:12:17.850Z,4.00
2023-04-25T09:13:17.841Z,4.10
2023-04-25T09:14:17.812Z,4.20
2023-04-25T09:16:18.831Z,4.00
2023-04-25T09:17:17.785Z,4.10
2023-04-25T09:18:17.794Z,3.80
2023-04-25T09:19:17.766Z,4.10
2023-04-25T09:20:17.772Z,4.40
2023-04-25T09:21:17.751Z,4.20
2023-04-25T09:22:17.734Z,4.30
2023-04-25T09:23:17.736Z,4.50
2023-04-25T09:24:17.715Z,4.50
2023-04-25T09:25:17.721Z,4.20
2023-04-25T09:26:17.692Z,4.50
2023-04-25T09:27:17.678Z,4.30
2023-04-25T09:28:17.678Z,4.00
2023-04-25T09:29:17.669Z,3.80
2023-04-25T09:30:17.677Z,4.00
2023-04-25T09:31:17.638Z,4.00
2023-04-25T09:32:17.640Z,3.90
2023-04-25T09:33:17.693Z,4.10
2023-04-25T09:34:17.619Z,4.00
2023-04-25T09:35:17.621Z,4.00
2023-04-25T09:36:17.597Z,4.00
2023-04-25T09:37:17.579Z,4.40
2023-04-25T09:38:17.563Z,4.40
2023-04-25T09:39:17.562Z,3.90
2023-04-25T09:40:17.543Z,3.90
2023-04-25T09:41:17.911Z,4.10
2023-04-25T09:42:17.533Z,3.90
2023-04-25T09:43:17.558Z,3.60
2023-04-25T09:44:17.515Z,3.80
2023-04-25T09:45:17.500Z,3.90
2023-04-25T09:46:17.529Z,3.90
2023-04-25T09:47:17.478Z,3.90
2023-04-25T09:48:17.463Z,3.50
2023-04-25T09:49:17.475Z,3.80
2023-04-25T09:50:17.516Z,3.50
2023-04-25T09:51:17.435Z,3.70
2023-04-25T09:52:17.426Z,3.90
2023-04-25T09:53:17.433Z,3.90
2023-04-25T09:54:17.436Z,3.90
2023-04-25T09:55:17.394Z,4.20
2023-04-25T09:56:17.387Z,3.60
2023-04-25T09:57:17.369Z,3.70
2023-04-25T09:58:17.365Z,4.00
2023-04-25T09:59:17.372Z,3.30
2023-04-25T10:00:17.410Z,3.40
2023-04-25T10:01:17.398Z,2.90
2023-04-25T10:02:17.421Z,2.90
2023-04-25T10:03:17.357Z,3.60
2023-04-25T10:04:17.363Z,3.30
2023-04-25T10:05:17.305Z,3.00
2023-04-25T10:06:17.541Z,3.20
2023-04-25T10:07:17.277Z,3.30
2023-04-25T10:08:17.277Z,3.10
2023-04-25T10:09:17.259Z,2.80
2023-04-25T10:10:17.236Z,3.40
2023-04-25T10:11:17.228Z,3.00
2023-04-25T10:12:17.220Z,3.20
2023-04-25T10:13:17.304Z,3.10
2023-04-25T10:14:17.223Z,2.90
2023-04-25T10:15:17.197Z,3.40
2023-04-25T10:16:17.214Z,2.90
2023-04-25T10:17:17.167Z,3.30
2023-04-25T10:18:17.155Z,3.40
2023-04-25T10:19:17.178Z,3.80
2023-04-25T10:20:17.138Z,3.30
2023-04-25T10:21:17.127Z,3.40
2023-04-25T10:22:17.127Z,3.40
2023-04-25T10:23:17.105Z,3.30
2023-04-25T10:24:17.111Z,3.00
2023-04-25T10:25:17.103Z,3.40
2023-04-25T10:26:17.084Z,2.90
2023-04-25T10:27:17.056Z,3.10
2023-04-25T10:28:17.047Z,2.80
2023-04-25T10:29:17.060Z,3.10
2023-04-25T10:30:17.477Z,2.80
2023-04-25T10:31:17.123Z,3.10
2023-04-25T10:32:17.041Z,3.10
2023-04-25T10:33:17.010Z,3.10
2023-04-25T10:34:17.012Z,3.30
2023-04-25T10:35:16.995Z,3.50
2023-04-25T10:36:16.977Z,2.90
2023-04-25T10:37:16.991Z,2.80
2023-04-25T10:38:16.941Z,3.10
2023-04-25T10:39:16.953Z,3.10
2023-04-25T10:40:16.929Z,3.00
2023-04-25T10:41:16.914Z,2.90
2023-04-25T10:42:16.904Z,2.90
2023-04-25T10:43:16.884Z,2.90
2023-04-25T10:44:16.934Z,2.60
2023-04-25T10:45:16.865Z,3.00
2023-04-25T10:46:16.877Z,3.10
2023-04-25T10:47:16.838Z,3.10
2023-04-25T10:48:16.832Z,2.60
2023-04-25T10:49:16.836Z,2.50
2023-04-25T10:50:16.851Z,2.40
2023-04-25T10:51:16.851Z,2.40
2023-04-25T10:52:16.794Z,2.50
2023-04-25T10:53:16.779Z,2.40
2023-04-25T10:54:16.785Z,2.70
2023-04-25T10:55:16.770Z,2.70
2023-04-25T10:56:16.757Z,2.80
2023-04-25T10:57:16.738Z,2.50
2023-04-25T10:58:16.753Z,2.70
2023-04-25T10:59:16.727Z,2.50
2023-04-25T11:00:16.708Z,2.40
2023-04-25T11:01:16.719Z,2.50
2023-04-25T11:02:16.878Z,2.90
2023-04-25T11:03:16.877Z,2.40
2023-04-25T11:04:16.890Z,3.70
2023-04-25T11:05:17.099Z,2.80
2023-04-25T11:06:16.643Z,2.40
2023-04-25T11:07:16.655Z,2.60
2023-04-25T11:08:16.624Z,2.70
2023-04-25T11:09:16.622Z,2.40
2023-04-25T11:10:17.608Z,2.80
2023-04-25T11:11:16.602Z,2.90
2023-04-25T11:12:16.581Z,2.40
2023-04-25T11:13:16.566Z,2.40
2023-04-25T11:14:16.561Z,2.40
2023-04-25T11:15:16.556Z,2.80
2023-04-25T11:16:23.604Z,2.30
2023-04-25T11:17:18.541Z,2.60
2023-04-25T11:18:16.548Z,2.40
2023-04-25T11:19:16.514Z,2.50
2023-04-25T11:20:16.501Z,2.70
2023-04-25T11:21:16.487Z,2.40
2023-04-25T11:22:16.473Z,2.70
2023-04-25T11:23:16.469Z,2.40
2023-04-25T11:24:16.468Z,3.10
2023-04-25T11:25:16.458Z,2.50
2023-04-25T11:26:16.470Z,2.90
2023-04-25T11:27:16.427Z,2.60
2023-04-25T11:28:16.416Z,2.80
2023-04-25T11:29:16.425Z,2.60
2023-04-25T11:30:16.391Z,3.20
2023-04-25T11:31:16.394Z,2.80
2023-04-25T11:32:16.475Z,2.50
2023-04-25T11:33:17.390Z,2.60
2023-04-25T11:34:16.369Z,3.30
2023-04-25T11:35:16.357Z,2.80
2023-04-25T11:36:16.323Z,2.50
2023-04-25T11:37:16.325Z,2.90
2023-04-25T11:38:16.309Z,2.80
2023-04-25T11:39:16.311Z,3.10
2023-04-25T11:40:16.286Z,2.70
2023-04-25T11:41:16.282Z,2.90
2023-04-25T11:42:16.281Z,3.00
2023-04-25T11:43:16.396Z,2.70
2023-04-25T11:44:16.262Z,2.80
2023-04-25T11:45:16.314Z,3.00
2023-04-25T11:46:16.250Z,2.70
2023-04-25T11:47:16.221Z,2.60
2023-04-25T11:48:16.277Z,2.60
2023-04-25T11:49:16.221Z,2.80
2023-04-25T11:50:16.218Z,2.70
2023-04-25T11:51:16.176Z,2.50
2023-04-25T11:52:16.163Z,2.40
2023-04-25T11:53:16.152Z,2.80
2023-04-25T11:54:16.161Z,2.60
2023-04-25T11:55:16.144Z,2.60
2023-04-25T11:56:16.125Z,2.60
2023-04-25T11:57:16.113Z,2.80
2023-04-25T11:58:16.105Z,2.80
2023-04-25T11:59:16.122Z,2.60
2023-04-25T12:00:18.666Z,2.40
2023-04-25T12:01:17.073Z,2.30
2023-04-25T12:02:16.127Z,2.70
2023-04-25T12:03:16.257Z,2.50
2023-04-25T12:04:16.254Z,2.60
2023-04-25T12:05:30.592Z,2.50
2023-04-25T12:06:18.180Z,2.60
2023-04-25T12:07:16.014Z,2.90
2023-04-25T12:08:15.997Z,2.30
2023-04-25T12:09:16.013Z,2.40
2023-04-25T12:10:15.983Z,2.40
2023-04-25T12:11:15.978Z,2.10
2023-04-25T12:12:15.970Z,2.40
2023-04-25T12:13:15.957Z,2.60
2023-04-25T12:14:15.942Z,2.60
2023-04-25T12:15:15.936Z,2.30
2023-04-25T12:16:15.990Z,2.30
2023-04-25T12:17:15.910Z,2.50
2023-04-25T12:18:15.945Z,2.50
2023-04-25T12:19:15.893Z,2.50
2023-04-25T12:20:15.926Z,2.30
2023-04-25T12:21:15.872Z,2.80
2023-04-25T12:22:15.858Z,2.70
2023-04-25T12:23:15.848Z,2.70
2023-04-25T12:24:15.865Z,2.60
2023-04-25T12:25:15.841Z,2.20
2023-04-25T12:26:16.011Z,3.20
2023-04-25T12:27:15.812Z,2.60
2023-04-25T12:28:15.810Z,2.70
2023-04-25T12:29:15.792Z,3.10
2023-04-25T12:30:15.789Z,2.80
2023-04-25T12:31:15.833Z,2.70
2023-04-25T12:32:15.758Z,2.50
2023-04-25T12:33:15.795Z,2.80
2023-04-25T12:34:15.763Z,2.50
2023-04-25T12:35:15.736Z,2.60
2023-04-25T12:36:15.713Z,2.80
2023-04-25T12:37:15.708Z,2.50
2023-04-25T12:38:15.698Z,2.50
2023-04-25T12:39:15.703Z,2.90
2023-04-25T12:40:15.693Z,2.70
2023-04-25T12:41:15.666Z,2.30
2023-04-25T12:42:15.663Z,3.20
2023-04-25T12:43:15.651Z,2.50
2023-04-25T12:44:15.643Z,2.60
2023-04-25T12:45:15.650Z,2.30
2023-04-25T12:46:15.795Z,2.40
2023-04-25T12:47:15.603Z,2.50
2023-04-25T12:48:15.593Z,2.60
2023-04-25T12:49:18.694Z,2.60
2023-04-25T12:50:17.620Z,2.60
2023-04-25T12:51:15.727Z,2.60
2023-04-25T12:52:15.650Z,2.80
2023-04-25T12:53:15.661Z,2.70
2023-04-25T12:54:15.533Z,2.60
2023-04-25T12:55:15.533Z,2.60
2023-04-25T12:56:15.511Z,2.70
2023-04-25T12:57:15.507Z,2.90
2023-04-25T12:58:15.548Z,2.30
2023-04-25T12:59:15.496Z,2.70
2023-04-25T13:00:15.490Z,2.70
2023-04-25T13:01:15.477Z,2.80
2023-04-25T13:02:15.477Z,2.40
2023-04-25T13:03:15.558Z,2.60
2023-04-25T13:04:15.711Z,2.70
2023-04-25T13:05:15.430Z,2.50
2023-04-25T13:06:15.409Z,2.50
2023-04-25T13:07:15.402Z,2.50
2023-04-25T13:08:15.391Z,2.60
2023-04-25T13:09:15.382Z,2.30
2023-04-25T13:10:15.385Z,2.60
2023-04-25T13:11:15.401Z,2.30
2023-04-25T13:12:15.349Z,2.90
2023-04-25T13:13:15.333Z,2.50
2023-04-25T13:14:15.345Z,2.30
2023-04-25T13:15:15.328Z,2.50
2023-04-25T13:16:15.332Z,2.60
2023-04-25T13:17:15.294Z,2.50
2023-04-25T13:18:15.366Z,2.60